createdAt,value
2019-06-20T00:00:00.906Z,24.61
2019-06-20T00:01:01.220Z,24.56
2019-06-20T00:02:01.660Z,24.69
2019-06-20T00:03:02.080Z,24.63
2019-06-20T00:04:02.479Z,24.71
2019-06-20T00:05:02.917Z,24.62
2019-06-20T00:06:03.299Z,24.53
2019-06-20T00:07:03.808Z,24.55
2019-06-20T00:08:04.153Z,24.55
2019-06-20T00:09:04.560Z,24.56
2019-06-20T00:10:04.996Z,24.51
2019-06-20T00:11:05.373Z,24.58
2019-06-20T00:12:05.835Z,24.46
2019-06-20T00:13:06.274Z,24.48
2019-06-20T00:14:06.668Z,24.56
2019-06-20T00:15:07.186Z,24.46
2019-06-20T00:16:07.488Z,24.43
2019-06-20T00:17:07.924Z,24.36
2019-06-20T00:18:08.347Z,24.37
2019-06-20T00:19:08.745Z,24.38
2019-06-20T00:20:09.180Z,24.36
2019-06-20T00:21:09.584Z,24.34
2019-06-20T00:22:10.046Z,24.36
2019-06-20T00:23:10.452Z,24.34
2019-06-20T00:24:10.861Z,24.34
2019-06-20T00:25:11.274Z,24.44
2019-06-20T00:26:11.665Z,24.41
2019-06-20T00:27:12.125Z,24.36
2019-06-20T00:28:12.514Z,24.41
2019-06-20T00:29:12.932Z,24.28
2019-06-20T00:30:13.389Z,24.31
2019-06-20T00:31:13.813Z,24.26
2019-06-20T00:32:14.353Z,24.24
2019-06-20T00:33:14.624Z,24.10
2019-06-20T00:34:15.043Z,24.07
2019-06-20T00:35:15.481Z,24.06
2019-06-20T00:36:15.880Z,23.85
2019-06-20T00:37:16.319Z,23.70
2019-06-20T00:38:16.737Z,23.66
2019-06-20T00:39:17.117Z,23.48
2019-06-20T00:40:17.676Z,23.40
2019-06-20T00:41:17.971Z,23.17
2019-06-20T00:42:18.427Z,23.06
2019-06-20T00:43:18.835Z,22.93
2019-06-20T00:44:19.215Z,22.83
2019-06-20T00:45:19.648Z,22.73
2019-06-20T00:46:20.068Z,22.70
2019-06-20T00:47:20.512Z,22.62
2019-06-20T00:48:20.989Z,22.62
2019-06-20T00:49:21.293Z,22.51
2019-06-20T00:50:21.734Z,22.52
2019-06-20T00:51:22.184Z,22.56
2019-06-20T00:52:22.619Z,22.51
2019-06-20T00:53:23.038Z,22.53
2019-06-20T00:54:23.440Z,22.49
2019-06-20T00:55:23.866Z,22.37
2019-06-20T00:56:24.307Z,22.22
2019-06-20T00:57:24.739Z,22.04
2019-06-20T00:58:25.139Z,21.89
2019-06-20T00:59:25.544Z,21.78
2019-06-20T01:00:25.950Z,21.81
2019-06-20T01:01:26.366Z,21.72
2019-06-20T01:02:26.783Z,21.89
2019-06-20T01:03:27.230Z,21.80
2019-06-20T01:04:27.676Z,21.80
2019-06-20T01:05:28.104Z,21.77
2019-06-20T01:06:28.467Z,21.77
2019-06-20T01:07:28.885Z,21.69
2019-06-20T01:08:29.544Z,21.66
2019-06-20T01:09:29.728Z,21.66
2019-06-20T01:10:30.132Z,21.62
2019-06-20T01:11:30.566Z,21.66
2019-06-20T01:12:31.002Z,21.59
2019-06-20T01:13:33.750Z,21.56
2019-06-20T01:14:31.809Z,21.47
2019-06-20T01:15:32.260Z,21.50
2019-06-20T01:16:32.667Z,21.51
2019-06-20T01:17:33.066Z,21.53
2019-06-20T01:18:33.482Z,21.83
2019-06-20T01:19:33.913Z,21.85
2019-06-20T01:20:34.329Z,21.97
2019-06-20T01:21:34.900Z,22.10
2019-06-20T01:22:35.173Z,22.22
2019-06-20T01:23:35.595Z,22.37
2019-06-20T01:24:36.011Z,22.65
2019-06-20T01:25:36.431Z,22.77
2019-06-20T01:26:36.867Z,22.98
2019-06-20T01:27:37.286Z,22.98
2019-06-20T01:28:37.718Z,23.08
2019-06-20T01:29:38.160Z,23.10
2019-06-20T01:30:38.514Z,23.11
2019-06-20T01:31:38.958Z,23.21
2019-06-20T01:32:39.389Z,23.10
2019-06-20T01:33:39.793Z,23.08
2019-06-20T01:34:40.175Z,23.17
2019-06-20T01:35:40.599Z,23.10
2019-06-20T01:36:41.046Z,23.11
2019-06-20T01:37:41.532Z,23.13
2019-06-20T01:38:41.872Z,23.13
2019-06-20T01:39:42.273Z,23.08
2019-06-20T01:40:42.675Z,23.02
2019-06-20T01:41:43.120Z,22.96
2019-06-20T01:42:43.559Z,22.88
2019-06-20T01:43:50.424Z,22.80
2019-06-20T01:44:45.395Z,22.77
2019-06-20T01:45:44.832Z,22.76
2019-06-20T01:46:45.277Z,22.61
2019-06-20T01:47:45.659Z,22.65
2019-06-20T01:48:46.058Z,22.61
2019-06-20T01:49:46.477Z,22.52
2019-06-20T01:50:46.888Z,22.47
2019-06-20T01:51:47.331Z,22.44
2019-06-20T01:52:47.743Z,22.26
2019-06-20T01:53:48.178Z,22.30
2019-06-20T01:54:48.722Z,22.31
2019-06-20T01:55:49.035Z,22.21
2019-06-20T01:56:49.450Z,22.14
2019-06-20T01:57:49.883Z,22.06
2019-06-20T01:58:50.306Z,22.06
2019-06-20T01:59:50.739Z,21.96
2019-06-20T02:00:51.157Z,21.94
2019-06-20T02:01:51.589Z,21.83
2019-06-20T02:02:52.141Z,21.84
2019-06-20T02:03:52.480Z,21.80
2019-06-20T02:04:52.854Z,21.78
2019-06-20T02:05:53.262Z,21.70
2019-06-20T02:06:53.690Z,21.70
2019-06-20T02:07:54.099Z,21.65
2019-06-20T02:08:54.500Z,21.58
2019-06-20T02:09:54.950Z,21.58
2019-06-20T02:12:27.669Z,21.50
2019-06-20T02:13:11.010Z,21.51
2019-06-20T02:14:11.411Z,21.41
2019-06-20T02:15:11.842Z,21.38
2019-06-20T02:16:12.245Z,21.43
2019-06-20T02:17:12.652Z,21.33
2019-06-20T02:18:13.081Z,21.38
2019-06-20T02:19:13.514Z,21.30
2019-06-20T02:20:14.036Z,21.30
2019-06-20T02:21:14.329Z,21.20
2019-06-20T02:22:14.751Z,21.32
2019-06-20T02:23:15.188Z,21.23
2019-06-20T02:24:15.605Z,21.25
2019-06-20T02:25:16.042Z,21.14
2019-06-20T02:26:16.450Z,21.22
2019-06-20T02:27:16.856Z,21.26
2019-06-20T02:28:17.379Z,21.22
2019-06-20T02:29:17.694Z,21.10
2019-06-20T02:30:18.125Z,21.14
2019-06-20T02:31:18.594Z,21.04
2019-06-20T02:32:18.931Z,21.07
2019-06-20T02:33:19.397Z,21.03
2019-06-20T02:34:19.781Z,21.05
2019-06-20T02:35:20.208Z,20.92
2019-06-20T02:36:20.653Z,20.89
2019-06-20T02:37:21.069Z,20.98
2019-06-20T02:38:21.498Z,20.92
2019-06-20T02:39:21.884Z,20.93
2019-06-20T02:40:22.300Z,20.93
2019-06-20T02:41:22.716Z,20.89
2019-06-20T02:42:23.135Z,20.83
2019-06-20T02:43:23.586Z,20.88
2019-06-20T02:44:29.837Z,20.88
2019-06-20T02:45:25.541Z,20.80
2019-06-20T02:46:24.808Z,20.82
2019-06-20T02:47:25.225Z,20.83
2019-06-20T02:48:25.916Z,20.77
2019-06-20T02:49:26.060Z,20.74
2019-06-20T02:50:26.502Z,20.77
2019-06-20T02:51:26.878Z,20.77
2019-06-20T02:52:27.321Z,20.60
2019-06-20T02:53:27.902Z,20.70
2019-06-20T02:54:28.162Z,20.68
2019-06-20T02:55:28.599Z,20.64
2019-06-20T02:56:28.982Z,20.63
2019-06-20T02:57:29.422Z,20.73
2019-06-20T02:58:29.885Z,20.67
2019-06-20T02:59:30.283Z,20.77
2019-06-20T03:00:30.707Z,20.74
2019-06-20T03:01:31.141Z,20.77
2019-06-20T03:02:31.496Z,20.67
2019-06-20T03:03:31.967Z,20.66
2019-06-20T03:04:32.355Z,20.75
2019-06-20T03:05:32.793Z,20.71
2019-06-20T03:06:33.190Z,20.77
2019-06-20T03:07:33.604Z,20.64
2019-06-20T03:08:34.046Z,20.77
2019-06-20T03:09:34.463Z,20.68
2019-06-20T03:10:34.914Z,20.63
2019-06-20T03:11:35.313Z,20.64
2019-06-20T03:12:35.735Z,20.52
2019-06-20T03:13:36.188Z,20.60
2019-06-20T03:14:44.941Z,20.52
2019-06-20T03:15:38.011Z,20.66
2019-06-20T03:16:37.423Z,20.53
2019-06-20T03:17:37.872Z,20.63
2019-06-20T03:18:38.397Z,20.64
2019-06-20T03:19:38.667Z,20.63
2019-06-20T03:20:39.114Z,20.73
2019-06-20T03:21:39.514Z,20.85
2019-06-20T03:22:39.935Z,20.93
2019-06-20T03:23:40.388Z,20.98
2019-06-20T03:24:40.770Z,20.96
2019-06-20T03:25:41.174Z,20.86
2019-06-20T03:26:41.718Z,20.90
2019-06-20T03:27:42.060Z,20.98
2019-06-20T03:28:42.519Z,20.96
2019-06-20T03:29:42.901Z,21.07
2019-06-20T03:30:43.314Z,21.17
2019-06-20T03:31:43.748Z,21.07
2019-06-20T03:32:44.166Z,21.15
2019-06-20T03:33:44.617Z,21.14
2019-06-20T03:34:45.069Z,21.07
2019-06-20T03:35:45.380Z,21.11
2019-06-20T03:36:45.842Z,21.13
2019-06-20T03:37:48.132Z,20.96
2019-06-20T03:38:46.711Z,21.00
2019-06-20T03:39:47.095Z,20.92
2019-06-20T03:40:47.540Z,20.83
2019-06-20T03:41:47.953Z,20.88
2019-06-20T03:42:48.384Z,20.85
2019-06-20T03:43:48.784Z,20.70
2019-06-20T03:45:01.277Z,20.75
2019-06-20T03:45:50.652Z,20.73
2019-06-20T03:46:50.036Z,20.66
2019-06-20T03:47:50.424Z,20.68
2019-06-20T03:48:50.935Z,20.60
2019-06-20T03:49:51.283Z,20.73
2019-06-20T03:50:51.724Z,20.66
2019-06-20T03:51:52.241Z,20.67
2019-06-20T03:52:52.523Z,20.66
2019-06-20T03:53:52.974Z,20.63
2019-06-20T03:54:53.374Z,20.63
2019-06-20T03:55:53.795Z,20.67
2019-06-20T03:56:54.231Z,20.75
2019-06-20T03:57:54.632Z,20.74
2019-06-20T03:58:55.100Z,20.77
2019-06-20T03:59:55.598Z,20.88
2019-06-20T04:00:55.879Z,20.92
2019-06-20T04:01:56.331Z,21.03
2019-06-20T04:02:56.718Z,21.08
2019-06-20T04:03:57.177Z,21.20
2019-06-20T04:04:57.544Z,21.37
2019-06-20T04:05:57.997Z,21.50
2019-06-20T04:06:58.420Z,21.51
2019-06-20T04:07:58.925Z,21.63
2019-06-20T04:08:59.264Z,21.77
2019-06-20T04:09:59.634Z,21.74
2019-06-20T04:11:00.083Z,21.88
2019-06-20T04:12:00.492Z,21.91
2019-06-20T04:13:00.908Z,21.99
2019-06-20T04:14:01.366Z,22.06
2019-06-20T04:15:14.965Z,22.00
2019-06-20T04:16:03.190Z,22.00
2019-06-20T04:17:02.587Z,22.00
2019-06-20T04:18:02.994Z,21.96
2019-06-20T04:19:03.453Z,22.06
2019-06-20T04:20:03.857Z,22.12
2019-06-20T04:21:04.257Z,22.16
2019-06-20T04:22:04.665Z,22.22
2019-06-20T04:23:05.086Z,22.23
2019-06-20T04:24:05.588Z,22.23
2019-06-20T04:25:05.964Z,22.36
2019-06-20T04:26:06.618Z,22.23
2019-06-20T04:27:06.817Z,22.28
2019-06-20T04:28:07.201Z,22.34
2019-06-20T04:29:07.654Z,22.36
2019-06-20T04:30:08.213Z,22.41
2019-06-20T04:31:08.493Z,22.53
2019-06-20T04:32:08.980Z,22.47
2019-06-20T04:33:09.415Z,22.58
2019-06-20T04:34:09.852Z,22.61
2019-06-20T04:35:10.202Z,22.61
2019-06-20T04:36:10.606Z,22.68
2019-06-20T04:37:11.037Z,22.68
2019-06-20T04:38:11.439Z,22.70
2019-06-20T04:39:18.677Z,22.74
2019-06-20T04:40:13.290Z,22.78
2019-06-20T04:41:12.857Z,22.78
2019-06-20T04:42:13.159Z,22.73
2019-06-20T04:43:13.553Z,22.80
2019-06-20T04:44:14.020Z,22.78
2019-06-20T04:45:14.439Z,22.81
2019-06-20T04:46:14.847Z,22.96
2019-06-20T04:47:15.284Z,22.96
2019-06-20T04:48:15.682Z,22.98
2019-06-20T04:49:19.506Z,22.93
2019-06-20T04:50:16.522Z,23.06
2019-06-20T04:51:16.934Z,23.04
2019-06-20T04:52:17.365Z,23.06
2019-06-20T04:53:17.787Z,23.18
2019-06-20T04:54:18.210Z,23.18
2019-06-20T04:55:18.607Z,23.18
2019-06-20T04:56:19.029Z,23.21
2019-06-20T04:57:19.532Z,23.42
2019-06-20T04:58:19.862Z,23.40
2019-06-20T04:59:20.305Z,23.51
2019-06-20T05:00:20.720Z,23.56
2019-06-20T05:01:21.110Z,23.64
2019-06-20T05:02:21.631Z,23.85
2019-06-20T05:03:21.969Z,23.88
2019-06-20T05:04:22.408Z,23.92
2019-06-20T05:05:22.887Z,24.00
2019-06-20T05:06:23.260Z,24.10
2019-06-20T05:07:23.657Z,24.10
2019-06-20T05:08:24.064Z,24.10
2019-06-20T05:09:24.500Z,24.11
2019-06-20T05:10:24.914Z,24.13
2019-06-20T05:11:25.322Z,24.31
2019-06-20T05:12:25.769Z,24.26
2019-06-20T05:13:26.172Z,24.40
2019-06-20T05:14:26.738Z,24.38
2019-06-20T05:15:27.025Z,24.51
2019-06-20T05:16:27.424Z,24.63
2019-06-20T05:17:27.846Z,24.63
2019-06-20T05:18:28.260Z,24.89
2019-06-20T05:19:28.717Z,24.82
2019-06-20T05:20:29.124Z,25.03
2019-06-20T05:21:29.516Z,25.11
2019-06-20T05:22:30.069Z,25.15
2019-06-20T05:23:30.345Z,25.12
2019-06-20T05:24:30.789Z,25.18
2019-06-20T05:25:31.215Z,25.21
2019-06-20T05:26:31.616Z,25.22
2019-06-20T05:27:32.049Z,25.24
2019-06-20T05:28:32.434Z,25.25
2019-06-20T05:29:32.890Z,25.34
2019-06-20T05:30:33.607Z,25.39
2019-06-20T05:31:33.681Z,25.40
2019-06-20T05:32:34.120Z,25.49
2019-06-20T05:33:34.501Z,25.58
2019-06-20T05:34:34.961Z,25.66
2019-06-20T05:35:35.480Z,25.61
2019-06-20T05:36:35.791Z,25.67
2019-06-20T05:37:36.232Z,25.70
2019-06-20T05:38:36.762Z,25.71
2019-06-20T05:39:37.101Z,25.58
2019-06-20T05:40:37.538Z,25.51
2019-06-20T05:41:37.957Z,25.48
2019-06-20T05:42:38.368Z,25.52
2019-06-20T05:43:38.788Z,25.55
2019-06-20T05:44:39.223Z,25.63
2019-06-20T05:45:39.666Z,25.70
2019-06-20T05:46:40.084Z,25.73
2019-06-20T05:47:40.490Z,25.88
2019-06-20T05:48:40.896Z,25.89
2019-06-20T05:49:41.465Z,25.91
2019-06-20T05:50:41.755Z,25.93
2019-06-20T05:51:42.139Z,25.95
2019-06-20T05:52:42.578Z,25.96
2019-06-20T05:53:43.010Z,26.03
2019-06-20T05:54:43.434Z,26.07
2019-06-20T05:55:43.945Z,26.08
2019-06-20T05:56:44.697Z,26.03
2019-06-20T05:57:44.678Z,26.03
2019-06-20T05:58:45.982Z,25.89
2019-06-20T05:59:45.536Z,25.89
2019-06-20T06:00:45.957Z,25.62
2019-06-20T06:01:46.977Z,25.63
2019-06-20T06:02:46.749Z,25.62
2019-06-20T06:03:47.311Z,25.63
2019-06-20T06:04:47.626Z,25.66
2019-06-20T06:05:48.050Z,25.66
2019-06-20T06:06:48.441Z,25.67
2019-06-20T06:07:48.856Z,25.59
2019-06-20T06:08:49.308Z,25.74
2019-06-20T06:09:49.728Z,25.76
2019-06-20T06:10:50.149Z,25.76
2019-06-20T06:11:50.632Z,25.63
2019-06-20T06:12:50.941Z,25.58
2019-06-20T06:13:51.385Z,25.62
2019-06-20T06:14:51.806Z,25.55
2019-06-20T06:15:52.220Z,25.61
2019-06-20T06:16:52.627Z,25.59
2019-06-20T06:17:53.060Z,25.51
2019-06-20T06:18:53.465Z,25.55
2019-06-20T06:19:53.981Z,25.67
2019-06-20T06:20:54.313Z,25.56
2019-06-20T06:21:54.722Z,25.48
2019-06-20T06:22:55.140Z,25.37
2019-06-20T06:23:55.575Z,25.44
2019-06-20T06:24:55.980Z,25.15
2019-06-20T06:25:56.409Z,25.04
2019-06-20T06:26:59.558Z,24.97
2019-06-20T06:27:57.259Z,24.63
2019-06-20T06:28:57.697Z,24.61
2019-06-20T06:29:58.072Z,24.51
2019-06-20T06:30:58.520Z,24.32
2019-06-20T06:31:58.902Z,24.16
2019-06-20T06:32:59.329Z,24.03
2019-06-20T06:33:59.758Z,24.01
2019-06-20T06:35:00.170Z,23.71
2019-06-20T06:36:00.599Z,23.55
2019-06-20T06:37:01.084Z,23.23
2019-06-20T06:38:01.419Z,22.78
2019-06-20T06:39:01.877Z,22.62
2019-06-20T06:40:02.276Z,22.28
2019-06-20T06:41:02.677Z,22.06
2019-06-20T06:42:03.106Z,21.84
2019-06-20T06:43:03.509Z,21.72
2019-06-20T06:44:03.939Z,21.54
2019-06-20T06:45:04.467Z,21.43
2019-06-20T06:46:04.748Z,21.28
2019-06-20T06:47:05.178Z,21.29
2019-06-20T06:48:05.596Z,21.10
2019-06-20T06:49:06.026Z,21.19
2019-06-20T06:50:06.508Z,21.14
2019-06-20T06:51:06.855Z,21.26
2019-06-20T06:52:07.320Z,21.15
2019-06-20T06:53:07.767Z,21.26
2019-06-20T06:54:08.123Z,21.33
2019-06-20T06:55:08.546Z,21.33
2019-06-20T06:56:08.946Z,21.41
2019-06-20T06:57:09.380Z,21.40
2019-06-20T06:58:09.783Z,21.37
2019-06-20T06:59:10.245Z,21.51
2019-06-20T07:00:10.675Z,21.58
2019-06-20T07:01:11.095Z,21.66
2019-06-20T07:02:11.471Z,21.70
2019-06-20T07:03:11.859Z,21.77
2019-06-20T07:04:12.316Z,21.88
2019-06-20T07:05:12.769Z,21.92
2019-06-20T07:06:13.156Z,22.08
2019-06-20T07:07:13.595Z,22.10
2019-06-20T07:08:14.006Z,22.22
2019-06-20T07:09:14.441Z,22.21
2019-06-20T07:10:14.904Z,22.30
2019-06-20T07:11:15.248Z,22.38
2019-06-20T07:12:15.749Z,22.40
2019-06-20T07:13:16.086Z,22.38
2019-06-20T07:14:16.536Z,22.47
2019-06-20T07:15:16.923Z,22.33
2019-06-20T07:16:17.341Z,22.38
2019-06-20T07:17:17.804Z,22.31
2019-06-20T07:18:18.284Z,22.23
2019-06-20T07:19:18.594Z,22.30
2019-06-20T07:20:19.017Z,22.34
2019-06-20T07:21:19.424Z,22.22
2019-06-20T07:22:19.860Z,22.21
2019-06-20T07:23:20.260Z,22.19
2019-06-20T07:24:20.711Z,22.28
2019-06-20T07:25:21.127Z,22.43
2019-06-20T07:26:21.615Z,22.53
2019-06-20T07:27:21.939Z,22.63
2019-06-20T07:28:22.342Z,22.61
2019-06-20T07:29:22.778Z,22.63
2019-06-20T07:30:23.193Z,22.70
2019-06-20T07:31:23.565Z,22.74
2019-06-20T07:32:24.041Z,22.74
2019-06-20T07:33:24.432Z,22.63
2019-06-20T07:34:24.899Z,22.59
2019-06-20T07:35:25.271Z,22.62
2019-06-20T07:36:25.668Z,22.73
2019-06-20T07:37:26.114Z,22.80
2019-06-20T07:38:26.530Z,22.86
2019-06-20T07:39:26.984Z,22.88
2019-06-20T07:40:27.381Z,22.92
2019-06-20T07:41:27.780Z,23.08
2019-06-20T07:42:28.479Z,22.99
2019-06-20T07:43:28.604Z,22.88
2019-06-20T07:44:29.060Z,22.83
2019-06-20T07:45:29.485Z,22.68
2019-06-20T07:46:29.946Z,22.65
2019-06-20T07:47:30.332Z,22.56
2019-06-20T07:48:30.715Z,22.43
2019-06-20T07:49:31.149Z,22.34
2019-06-20T07:50:31.611Z,22.30
2019-06-20T07:51:32.103Z,22.22
2019-06-20T07:52:32.412Z,22.25
2019-06-20T07:53:32.799Z,22.06
2019-06-20T07:54:33.238Z,21.92
2019-06-20T07:55:33.701Z,21.89
2019-06-20T07:56:34.100Z,21.74
2019-06-20T07:57:34.544Z,21.66
2019-06-20T07:58:34.941Z,21.56
2019-06-20T07:59:35.444Z,21.65
2019-06-20T08:00:35.819Z,21.51
2019-06-20T08:01:36.213Z,21.45
2019-06-20T08:02:36.652Z,21.44
2019-06-20T08:03:37.049Z,21.48
2019-06-20T08:04:37.457Z,21.54
2019-06-20T08:05:37.956Z,21.70
2019-06-20T08:06:38.314Z,21.69
2019-06-20T08:07:38.854Z,21.81
2019-06-20T08:08:39.142Z,21.99
2019-06-20T08:09:44.773Z,22.10
2019-06-20T08:10:41.014Z,22.16
2019-06-20T08:11:40.412Z,22.31
2019-06-20T08:12:40.837Z,22.22
2019-06-20T08:13:41.240Z,22.30
2019-06-20T08:14:41.704Z,22.44
2019-06-20T08:15:42.128Z,22.40
2019-06-20T08:16:42.479Z,22.44
2019-06-20T08:17:43.045Z,22.40
2019-06-20T08:18:43.354Z,22.44
2019-06-20T08:19:43.757Z,22.46
2019-06-20T08:20:44.201Z,22.41
2019-06-20T08:21:44.590Z,22.47
2019-06-20T08:22:45.008Z,22.55
2019-06-20T08:23:45.456Z,22.59
2019-06-20T08:24:45.866Z,22.74
2019-06-20T08:25:46.299Z,22.91
2019-06-20T08:26:46.682Z,22.93
2019-06-20T08:27:47.102Z,22.96
2019-06-20T08:28:47.510Z,22.96
2019-06-20T08:29:47.956Z,23.06
2019-06-20T08:30:48.412Z,23.17
2019-06-20T08:31:48.877Z,23.25
2019-06-20T08:32:49.329Z,23.36
2019-06-20T08:33:49.643Z,23.47
2019-06-20T08:34:50.054Z,23.58
2019-06-20T08:35:50.508Z,23.54
2019-06-20T08:36:50.901Z,23.70
2019-06-20T08:37:51.328Z,23.85
2019-06-20T08:38:51.702Z,23.85
2019-06-20T08:39:52.145Z,23.85
2019-06-20T08:40:52.686Z,23.91
2019-06-20T08:41:52.972Z,24.03
2019-06-20T08:42:53.418Z,24.14
2019-06-20T08:43:53.889Z,24.44
2019-06-20T08:44:56.215Z,24.41
2019-06-20T08:45:55.121Z,24.40
2019-06-20T08:46:56.380Z,24.41
2019-06-20T08:47:56.560Z,24.29
2019-06-20T08:48:56.312Z,24.28
2019-06-20T08:49:56.502Z,24.19
2019-06-20T08:50:58.225Z,24.24
2019-06-20T08:51:57.354Z,24.28
2019-06-20T08:52:57.997Z,24.21
2019-06-20T08:53:59.200Z,24.10
2019-06-20T08:54:59.548Z,24.13
2019-06-20T08:55:59.381Z,24.06
2019-06-20T08:56:59.324Z,23.94
2019-06-20T08:58:01.309Z,23.92
2019-06-20T08:59:00.593Z,24.01
2019-06-20T09:00:00.684Z,24.10
2019-06-20T09:08:10.159Z,24.29
2019-06-20T09:09:04.450Z,24.34
2019-06-20T09:10:04.741Z,24.41
2019-06-20T09:11:05.465Z,24.44
2019-06-20T09:12:05.576Z,24.63
2019-06-20T09:13:06.016Z,24.68
2019-06-20T09:14:06.510Z,24.84
2019-06-20T09:15:06.854Z,24.86
2019-06-20T09:16:07.305Z,24.89
2019-06-20T09:17:07.688Z,24.82
2019-06-20T09:18:08.100Z,24.84
2019-06-20T09:19:08.552Z,24.81
2019-06-20T09:20:08.969Z,24.84
2019-06-20T09:21:09.449Z,24.82
2019-06-20T09:22:09.942Z,24.66
2019-06-20T09:23:10.188Z,24.66
2019-06-20T09:24:10.695Z,24.59
2019-06-20T09:25:11.048Z,24.58
2019-06-20T09:26:11.498Z,24.28
2019-06-20T09:27:11.885Z,24.28
2019-06-20T09:28:12.303Z,24.18
2019-06-20T09:29:12.724Z,24.14
2019-06-20T09:30:13.291Z,24.34
2019-06-20T09:31:13.585Z,24.40
2019-06-20T09:32:13.983Z,24.48
2019-06-20T09:33:14.394Z,24.59
2019-06-20T09:34:14.819Z,24.79
2019-06-20T09:35:15.222Z,24.94
2019-06-20T09:36:15.722Z,24.99
2019-06-20T09:37:16.085Z,25.11
2019-06-20T09:38:16.540Z,25.30
2019-06-20T09:39:16.922Z,25.30
2019-06-20T09:40:17.310Z,25.37
2019-06-20T09:41:17.797Z,25.41
2019-06-20T09:42:18.170Z,25.40
2019-06-20T09:43:27.172Z,25.48
2019-06-20T09:44:20.025Z,25.49
2019-06-20T09:45:19.427Z,25.55
2019-06-20T09:46:19.959Z,25.49
2019-06-20T09:47:20.243Z,25.56
2019-06-20T09:48:20.670Z,25.54
2019-06-20T09:49:21.109Z,25.61
2019-06-20T09:50:21.517Z,25.74
2019-06-20T09:51:21.976Z,25.83
2019-06-20T09:52:22.345Z,25.85
2019-06-20T09:53:22.773Z,25.92
2019-06-20T09:54:23.281Z,26.08
2019-06-20T09:55:23.672Z,26.18
2019-06-20T09:56:24.064Z,26.27
2019-06-20T09:57:24.445Z,26.36
2019-06-20T09:58:24.873Z,26.46
2019-06-20T09:59:27.788Z,26.49
2019-06-20T10:00:25.733Z,26.67
2019-06-20T10:01:26.175Z,26.70
2019-06-20T10:02:26.547Z,26.76
2019-06-20T10:03:27.104Z,26.76
2019-06-20T10:04:27.423Z,26.91
2019-06-20T10:05:27.826Z,27.07
2019-06-20T10:06:28.282Z,27.16
2019-06-20T10:07:28.644Z,27.23
2019-06-20T10:08:29.083Z,27.41
2019-06-20T10:09:29.531Z,27.37
2019-06-20T10:10:29.938Z,27.43
2019-06-20T10:11:30.509Z,27.40
2019-06-20T10:12:30.758Z,27.40
2019-06-20T10:13:32.566Z,27.44
2019-06-20T10:14:31.628Z,27.38
2019-06-20T10:15:32.028Z,27.48
2019-06-20T10:16:45.020Z,27.53
2019-06-20T10:17:33.885Z,27.41
2019-06-20T10:18:33.288Z,27.38
2019-06-20T10:19:33.802Z,27.40
2019-06-20T10:20:34.141Z,27.47
2019-06-20T10:21:34.591Z,27.60
2019-06-20T10:22:35.008Z,27.53
2019-06-20T10:23:35.422Z,27.50
2019-06-20T10:24:35.841Z,27.67
2019-06-20T10:25:36.260Z,27.58
2019-06-20T10:26:37.628Z,27.63
2019-06-20T10:27:37.192Z,27.67
2019-06-20T10:28:37.513Z,27.60
2019-06-20T10:29:37.954Z,27.55
2019-06-20T10:30:38.349Z,27.48
2019-06-20T10:31:38.795Z,27.37
2019-06-20T10:32:39.214Z,27.15
2019-06-20T10:33:39.621Z,26.86
2019-06-20T10:34:40.060Z,26.70
2019-06-20T10:35:40.486Z,26.39
2019-06-20T10:36:40.976Z,26.07
2019-06-20T10:37:41.313Z,26.11
2019-06-20T10:38:41.715Z,26.11
2019-06-20T10:39:44.495Z,26.26
2019-06-20T10:40:44.733Z,26.31
2019-06-20T10:41:43.574Z,26.07
2019-06-20T10:42:44.556Z,26.07
2019-06-20T10:43:44.264Z,26.03
2019-06-20T10:44:45.703Z,25.88
2019-06-20T10:45:45.718Z,25.83
2019-06-20T10:46:45.863Z,25.70
2019-06-20T10:47:46.886Z,25.81
2019-06-20T10:48:45.999Z,25.99
2019-06-20T10:49:47.711Z,26.10
2019-06-20T10:50:47.721Z,26.10
2019-06-20T10:51:47.639Z,26.27
2019-06-20T10:52:48.043Z,26.45
2019-06-20T10:53:49.187Z,26.49
2019-06-20T10:54:49.286Z,26.44
2019-06-20T10:55:49.047Z,26.26
2019-06-20T10:56:49.326Z,26.15
2019-06-20T10:57:50.015Z,26.41
2019-06-20T10:58:50.690Z,26.70
2019-06-20T10:59:50.895Z,26.68
2019-06-20T11:00:51.301Z,26.83
2019-06-20T11:01:51.415Z,26.93
2019-06-20T11:02:51.839Z,27.18
2019-06-20T11:03:52.228Z,27.37
2019-06-20T11:04:52.679Z,27.38
2019-06-20T11:05:53.078Z,27.38
2019-06-20T11:06:53.542Z,27.58
2019-06-20T11:07:53.943Z,27.63
2019-06-20T11:08:54.378Z,27.83
2019-06-20T11:09:54.741Z,27.85
2019-06-20T11:10:55.163Z,27.83
2019-06-20T11:11:55.595Z,27.79
2019-06-20T11:12:56.435Z,27.71
2019-06-20T11:13:56.420Z,27.50
2019-06-20T11:14:56.857Z,27.13
2019-06-20T11:15:57.238Z,26.91
2019-06-20T11:16:57.753Z,26.81
2019-06-20T11:17:58.175Z,26.71
2019-06-20T11:18:58.523Z,26.74
2019-06-20T11:19:58.951Z,26.89
2019-06-20T11:20:59.338Z,26.98
2019-06-20T11:21:59.811Z,27.00
2019-06-20T11:23:00.239Z,26.92
2019-06-20T11:24:00.630Z,26.70
2019-06-20T11:25:01.059Z,26.81
2019-06-20T11:26:01.593Z,26.85
2019-06-20T11:27:01.928Z,27.04
2019-06-20T11:28:02.349Z,27.18
2019-06-20T11:29:02.775Z,27.23
2019-06-20T11:30:03.226Z,27.23
2019-06-20T11:31:03.603Z,27.20
2019-06-20T11:32:04.008Z,27.35
2019-06-20T11:33:04.436Z,27.41
2019-06-20T11:34:04.980Z,27.37
2019-06-20T11:35:05.285Z,27.35
2019-06-20T11:36:05.709Z,27.52
2019-06-20T11:37:06.153Z,27.52
2019-06-20T11:38:06.576Z,27.81
2019-06-20T11:39:06.975Z,27.91
2019-06-20T11:40:07.398Z,27.94
2019-06-20T11:41:07.875Z,27.98
2019-06-20T11:42:08.336Z,28.04
2019-06-20T11:43:08.660Z,28.13
2019-06-20T11:44:09.077Z,28.22
2019-06-20T11:45:09.512Z,28.19
2019-06-20T11:46:09.930Z,28.28
2019-06-20T11:47:10.351Z,28.25
2019-06-20T11:48:10.771Z,28.33
2019-06-20T11:49:11.155Z,28.19
2019-06-20T11:50:11.630Z,28.38
2019-06-20T11:51:12.009Z,28.20
2019-06-20T11:52:12.438Z,28.16
2019-06-20T11:53:12.857Z,27.97
2019-06-20T11:54:13.248Z,28.13
2019-06-20T11:55:13.658Z,28.16
2019-06-20T11:56:14.110Z,28.28
2019-06-20T11:57:14.537Z,28.18
2019-06-20T11:58:15.007Z,27.86
2019-06-20T11:59:15.401Z,27.68
2019-06-20T12:00:15.773Z,27.50
2019-06-20T12:01:16.214Z,27.40
2019-06-20T12:02:16.637Z,27.37
2019-06-20T12:03:17.079Z,27.37
2019-06-20T12:04:17.444Z,27.43
2019-06-20T12:05:17.877Z,27.43
2019-06-20T12:06:18.327Z,27.58
2019-06-20T12:07:18.852Z,27.73
2019-06-20T12:08:19.161Z,27.73
2019-06-20T12:09:19.556Z,27.88
2019-06-20T12:10:19.993Z,28.08
2019-06-20T12:11:20.396Z,28.20
2019-06-20T12:12:20.860Z,28.41
2019-06-20T12:13:21.257Z,28.28
2019-06-20T12:14:21.691Z,28.34
2019-06-20T12:15:22.212Z,28.37
2019-06-20T12:16:22.490Z,28.43
2019-06-20T12:17:22.928Z,28.65
2019-06-20T12:18:23.393Z,28.71
2019-06-20T12:19:23.747Z,28.64
2019-06-20T12:20:24.162Z,28.70
2019-06-20T12:21:24.604Z,28.71
2019-06-20T12:22:25.003Z,28.74
2019-06-20T12:23:25.542Z,28.70
2019-06-20T12:24:25.835Z,28.83
2019-06-20T12:25:26.255Z,29.02
2019-06-20T12:26:26.690Z,29.15
2019-06-20T12:27:27.093Z,29.35
2019-06-20T12:28:27.512Z,29.40
2019-06-20T12:29:28.012Z,29.47
2019-06-20T12:30:28.382Z,29.24
2019-06-20T12:31:28.855Z,28.90
2019-06-20T12:32:29.219Z,28.67
2019-06-20T12:33:29.614Z,28.52
2019-06-20T12:34:30.064Z,28.38
2019-06-20T12:35:30.498Z,28.46
2019-06-20T12:36:30.935Z,28.47
2019-06-20T12:37:31.358Z,28.31
2019-06-20T12:38:31.762Z,28.22
2019-06-20T12:39:32.476Z,28.12
2019-06-20T12:40:32.573Z,28.19
2019-06-20T12:41:33.042Z,28.30
2019-06-20T12:42:33.482Z,28.33
2019-06-20T12:43:33.869Z,28.27
2019-06-20T12:44:34.303Z,28.04
2019-06-20T12:45:34.686Z,28.20
2019-06-20T12:46:35.129Z,28.38
2019-06-20T12:47:35.589Z,28.55
2019-06-20T12:48:36.059Z,28.75
2019-06-20T12:49:37.285Z,28.92
2019-06-20T12:50:36.775Z,29.02
2019-06-20T12:51:37.318Z,29.16
2019-06-20T12:52:38.913Z,29.25
2019-06-20T12:53:38.821Z,29.06
2019-06-20T12:54:39.560Z,28.86
2019-06-20T12:55:40.262Z,28.74
2019-06-20T12:56:40.259Z,28.64
2019-06-20T12:57:40.343Z,28.46
2019-06-20T12:58:40.774Z,28.50
2019-06-20T12:59:41.004Z,28.22
2019-06-20T13:00:41.705Z,28.19
2019-06-20T13:01:44.168Z,28.09
2019-06-20T13:02:42.490Z,28.15
2019-06-20T13:03:42.801Z,28.00
2019-06-20T13:04:43.900Z,27.93
2019-06-20T13:05:43.346Z,27.81